createdAt,value
2019-02-27T00:01:17.073Z,4.50
2019-02-27T00:03:47.038Z,4.50
2019-02-27T00:06:16.437Z,4.40
2019-02-27T00:08:45.957Z,4.40
2019-02-27T00:11:15.663Z,4.40
2019-02-27T00:13:45.317Z,4.40
2019-02-27T00:16:14.963Z,4.40
2019-02-27T00:18:44.442Z,4.40
2019-02-27T00:21:13.932Z,4.30
2019-02-27T00:23:43.309Z,4.30
2019-02-27T00:26:12.843Z,4.30
2019-02-27T00:28:42.269Z,4.20
2019-02-27T00:31:12.093Z,4.20
2019-02-27T00:33:41.485Z,4.20
2019-02-27T00:36:12.288Z,4.10
2019-02-27T00:38:42.277Z,4.10
2019-02-27T00:41:12.981Z,4.10
2019-02-27T00:43:42.502Z,4.00
2019-02-27T00:46:13.399Z,4.00
2019-02-27T00:48:43.262Z,4.00
2019-02-27T00:51:12.950Z,4.00
2019-02-27T00:53:42.514Z,3.90
2019-02-27T00:56:12.806Z,3.90
2019-02-27T00:58:42.444Z,3.90
2019-02-27T01:01:12.660Z,3.80
2019-02-27T01:03:42.762Z,3.80
2019-02-27T01:06:14.684Z,3.80
2019-02-27T01:08:43.836Z,3.80
2019-02-27T01:11:13.348Z,3.80
2019-02-27T01:13:42.881Z,3.80
2019-02-27T01:16:12.368Z,3.70
2019-02-27T01:18:43.941Z,3.70
2019-02-27T01:21:13.470Z,3.70
2019-02-27T01:23:44.619Z,3.70
2019-02-27T01:26:14.258Z,3.70
2019-02-27T01:28:45.404Z,3.60
2019-02-27T01:31:15.031Z,3.60
2019-02-27T01:33:44.446Z,3.60
2019-02-27T01:36:13.991Z,3.60
2019-02-27T01:38:43.552Z,3.60
2019-02-27T01:41:13.042Z,3.60
2019-02-27T01:43:42.606Z,3.60
2019-02-27T01:46:12.030Z,3.50
2019-02-27T01:48:43.666Z,3.50
2019-02-27T01:51:12.649Z,3.50
2019-02-27T01:53:42.106Z,3.40
2019-02-27T01:56:11.592Z,3.50
2019-02-27T01:58:43.339Z,3.40
2019-02-27T02:01:12.244Z,3.40
2019-02-27T02:03:41.649Z,3.40
2019-02-27T02:06:11.075Z,3.40
2019-02-27T02:08:40.440Z,3.40
2019-02-27T02:11:10.029Z,3.30
2019-02-27T02:14:13.249Z,3.30
2019-02-27T02:17:20.240Z,3.20
2019-02-27T02:20:13.323Z,3.20
2019-02-27T02:23:09.052Z,3.20
2019-02-27T02:26:09.857Z,3.20
2019-02-27T02:29:03.906Z,3.20
2019-02-27T02:31:53.186Z,3.20
2019-02-27T02:34:39.902Z,3.20
2019-02-27T02:37:33.694Z,3.20
2019-02-27T02:40:37.296Z,3.10
2019-02-27T02:43:23.071Z,3.10
2019-02-27T02:46:46.419Z,3.10
2019-02-27T02:49:58.179Z,3.00
2019-02-27T02:53:29.354Z,3.00
2019-02-27T02:56:50.771Z,3.00
2019-02-27T03:00:08.798Z,3.00
2019-02-27T03:02:43.821Z,3.00
2019-02-27T03:06:03.005Z,2.90
2019-02-27T03:09:00.867Z,2.90
2019-02-27T03:11:57.884Z,2.90
2019-02-27T03:15:06.702Z,2.80
2019-02-27T03:18:17.526Z,2.90
2019-02-27T03:21:28.721Z,2.80
2019-02-27T03:24:27.931Z,2.80
2019-02-27T03:27:15.609Z,2.80
2019-02-27T03:30:33.658Z,2.80
2019-02-27T03:33:29.855Z,2.70
2019-02-27T03:36:14.329Z,2.70
2019-02-27T03:39:42.959Z,2.70
2019-02-27T03:42:45.214Z,2.70
2019-02-27T03:45:38.094Z,2.60
2019-02-27T03:48:43.234Z,2.60
2019-02-27T03:52:11.501Z,2.60
2019-02-27T03:55:09.975Z,2.60
2019-02-27T03:58:26.836Z,2.50
2019-02-27T04:01:36.380Z,2.60
2019-02-27T04:04:29.610Z,2.50
2019-02-27T04:07:22.662Z,2.50
2019-02-27T04:09:55.402Z,2.50
2019-02-27T04:12:23.332Z,2.50
2019-02-27T04:14:52.756Z,2.40
2019-02-27T04:17:27.866Z,2.40
2019-02-27T04:19:57.707Z,2.40
2019-02-27T04:22:28.896Z,2.40
2019-02-27T04:24:58.422Z,2.30
2019-02-27T04:27:28.042Z,2.30
2019-02-27T04:29:57.468Z,2.30
2019-02-27T04:32:26.877Z,2.30
2019-02-27T04:34:56.298Z,2.30
2019-02-27T04:37:25.728Z,2.30
2019-02-27T04:39:55.153Z,2.30
2019-02-27T04:42:25.657Z,2.40
2019-02-27T04:44:55.865Z,2.30
2019-02-27T04:47:28.716Z,2.30
2019-02-27T04:49:56.557Z,2.30
2019-02-27T04:52:25.949Z,2.30
2019-02-27T04:54:55.479Z,2.30
2019-02-27T04:57:25.110Z,2.30
2019-02-27T04:59:54.715Z,2.30
2019-02-27T05:02:24.192Z,2.30
2019-02-27T05:04:53.666Z,2.30
2019-02-27T05:07:24.241Z,2.30
2019-02-27T05:09:53.647Z,2.30
2019-02-27T05:12:23.232Z,2.30
2019-02-27T05:14:53.035Z,2.30
2019-02-27T05:17:22.910Z,2.20
2019-02-27T05:19:53.103Z,2.20
2019-02-27T05:22:26.438Z,2.20
2019-02-27T05:24:53.680Z,2.20
2019-02-27T05:27:23.094Z,2.20
2019-02-27T05:29:52.495Z,2.20
2019-02-27T05:32:22.134Z,2.20
2019-02-27T05:34:51.658Z,2.10
2019-02-27T05:37:21.094Z,2.10
2019-02-27T05:39:51.248Z,2.10
2019-02-27T05:42:21.105Z,2.10
2019-02-27T05:44:55.586Z,2.20
2019-02-27T05:47:21.843Z,2.10
2019-02-27T05:49:51.350Z,2.10
2019-02-27T05:52:20.767Z,2.10
2019-02-27T05:54:50.194Z,2.10
2019-02-27T05:57:21.053Z,2.10
2019-02-27T05:59:50.854Z,2.10
2019-02-27T06:02:20.225Z,2.10
2019-02-27T06:04:49.664Z,2.10
2019-02-27T06:07:19.620Z,2.10
2019-02-27T06:09:49.148Z,2.10
2019-02-27T06:12:18.511Z,2.10
2019-02-27T06:14:47.943Z,2.10
2019-02-27T06:17:17.349Z,2.10
2019-02-27T06:19:46.809Z,2.10
2019-02-27T06:22:16.289Z,2.10
2019-02-27T06:24:46.406Z,2.00
2019-02-27T06:27:15.896Z,2.00
2019-02-27T06:29:45.264Z,2.00
2019-02-27T06:32:14.673Z,2.00
2019-02-27T06:34:44.026Z,2.00
2019-02-27T06:37:15.523Z,2.00
2019-02-27T06:39:44.469Z,2.00
2019-02-27T06:42:13.903Z,2.10
2019-02-27T06:44:43.300Z,2.00
2019-02-27T06:47:12.679Z,2.00
2019-02-27T06:49:42.109Z,2.00
2019-02-27T06:52:11.552Z,1.90
2019-02-27T06:54:40.948Z,2.00
2019-02-27T06:57:10.318Z,1.90
2019-02-27T06:59:39.715Z,2.00
2019-02-27T07:02:09.131Z,2.00
2019-02-27T07:04:39.507Z,2.00
2019-02-27T07:07:09.597Z,2.00
2019-02-27T07:09:38.938Z,2.00
2019-02-27T07:12:08.281Z,2.00
2019-02-27T07:14:39.241Z,2.00
2019-02-27T07:17:08.768Z,2.10
2019-02-27T07:19:38.138Z,2.10
2019-02-27T07:22:08.866Z,2.10
2019-02-27T07:24:38.576Z,2.20
2019-02-27T07:27:07.950Z,2.20
2019-02-27T07:29:37.337Z,2.20
2019-02-27T07:32:06.793Z,2.30
2019-02-27T07:34:36.148Z,2.30
2019-02-27T07:37:05.499Z,2.40
2019-02-27T07:39:34.824Z,2.40
2019-02-27T07:42:04.178Z,2.50
2019-02-27T07:44:35.048Z,2.50
2019-02-27T07:47:04.626Z,2.60
2019-02-27T07:49:33.953Z,2.60
2019-02-27T07:52:03.327Z,2.70
2019-02-27T07:54:32.630Z,2.80
2019-02-27T07:57:01.994Z,2.90
2019-02-27T07:59:31.412Z,2.90
2019-02-27T08:02:03.087Z,3.00
2019-02-27T08:04:31.823Z,3.10
2019-02-27T08:07:01.145Z,3.30
2019-02-27T08:09:30.776Z,3.40
2019-02-27T08:12:00.116Z,3.50
2019-02-27T08:14:29.458Z,3.60
2019-02-27T08:16:58.788Z,3.70
2019-02-27T08:19:28.156Z,3.90
2019-02-27T08:21:57.498Z,4.00
2019-02-27T08:24:26.822Z,4.10
2019-02-27T08:26:56.193Z,4.20
2019-02-27T08:29:25.556Z,4.30
2019-02-27T08:31:54.929Z,4.50
2019-02-27T08:34:24.472Z,4.60
2019-02-27T08:36:53.973Z,4.70
2019-02-27T08:39:23.537Z,4.80
2019-02-27T08:41:52.953Z,5.00
2019-02-27T08:44:22.384Z,5.10
2019-02-27T08:46:51.697Z,5.30
2019-02-27T08:49:24.187Z,5.40
2019-02-27T08:51:52.136Z,5.50
2019-02-27T08:54:21.502Z,5.70
2019-02-27T08:56:50.857Z,5.80
2019-02-27T08:59:20.240Z,5.90
2019-02-27T09:01:49.579Z,6.00
2019-02-27T09:04:19.227Z,6.10
2019-02-27T09:06:48.570Z,6.30
2019-02-27T09:09:18.643Z,6.40
2019-02-27T09:11:48.066Z,6.50
2019-02-27T09:14:17.425Z,6.60
2019-02-27T09:16:46.832Z,6.80
2019-02-27T09:19:16.185Z,6.90
2019-02-27T09:21:45.528Z,7.10
2019-02-27T09:24:14.880Z,7.20
2019-02-27T09:26:44.284Z,7.30
2019-02-27T09:29:18.389Z,7.40
2019-02-27T09:31:50.705Z,7.60
2019-02-27T09:34:15.919Z,7.70
2019-02-27T09:36:45.323Z,7.80
2019-02-27T09:39:14.681Z,7.90
2019-02-27T09:41:46.928Z,8.00
2019-02-27T09:44:15.293Z,8.20
2019-02-27T09:46:44.684Z,8.30
2019-02-27T09:49:14.056Z,8.40
2019-02-27T09:51:43.466Z,8.50
2019-02-27T09:54:13.286Z,8.70
2019-02-27T09:56:43.482Z,8.90
2019-02-27T09:59:12.856Z,9.00
2019-02-27T10:01:42.283Z,9.20
2019-02-27T10:04:11.734Z,9.40
2019-02-27T10:06:42.840Z,9.60
2019-02-27T10:09:16.865Z,9.70
2019-02-27T10:11:46.237Z,9.80
2019-02-27T10:14:16.408Z,9.90
2019-02-27T10:16:46.340Z,10.10
2019-02-27T10:19:17.150Z,10.30
2019-02-27T10:21:47.584Z,10.40
2019-02-27T10:24:17.095Z,10.60
2019-02-27T10:26:46.497Z,10.70
2019-02-27T10:29:16.317Z,10.90
2019-02-27T10:31:46.269Z,11.10
2019-02-27T10:34:17.567Z,11.30
2019-02-27T10:36:47.694Z,11.40
2019-02-27T10:39:17.765Z,11.50
2019-02-27T10:41:49.716Z,11.70
2019-02-27T10:44:18.351Z,11.80
2019-02-27T10:46:47.698Z,11.90
2019-02-27T10:49:21.538Z,12.10
2019-02-27T10:51:48.171Z,12.20
2019-02-27T10:54:17.862Z,12.40
2019-02-27T10:56:47.320Z,12.60
2019-02-27T10:59:19.686Z,12.70
2019-02-27T11:01:48.069Z,12.90
2019-02-27T11:04:17.575Z,13.00
2019-02-27T11:06:47.082Z,13.20
2019-02-27T11:09:25.642Z,13.30
2019-02-27T11:11:55.267Z,13.40
2019-02-27T11:14:25.117Z,13.70
2019-02-27T11:16:54.682Z,13.80
2019-02-27T11:19:24.340Z,14.00
2019-02-27T11:21:53.998Z,14.10
2019-02-27T11:24:24.744Z,14.20
2019-02-27T11:26:54.264Z,14.40
2019-02-27T11:29:24.379Z,14.60
2019-02-27T11:31:53.905Z,14.70
2019-02-27T11:34:23.438Z,14.90
2019-02-27T11:36:52.845Z,15.00
2019-02-27T11:39:22.244Z,15.10
2019-02-27T11:41:51.795Z,15.30
2019-02-27T11:44:21.365Z,15.40
2019-02-27T11:46:58.773Z,15.50
2019-02-27T11:49:21.895Z,15.60
2019-02-27T11:51:53.236Z,15.70
2019-02-27T11:54:22.513Z,15.80
2019-02-27T11:56:56.301Z,15.90
2019-02-27T11:59:23.053Z,16.00
2019-02-27T12:01:55.361Z,16.10
2019-02-27T12:04:23.598Z,16.20
2019-02-27T12:06:53.003Z,16.30
2019-02-27T12:09:22.359Z,16.40
2019-02-27T12:11:51.927Z,16.40
2019-02-27T12:14:21.457Z,16.50
2019-02-27T12:16:51.792Z,16.60
2019-02-27T12:19:21.859Z,16.60
2019-02-27T12:21:51.260Z,16.70
2019-02-27T12:24:22.111Z,16.70
2019-02-27T12:26:51.995Z,16.70
2019-02-27T12:29:21.393Z,16.80
2019-02-27T12:31:50.777Z,16.90
2019-02-27T12:34:20.308Z,16.90
2019-02-27T12:36:49.953Z,17.00
2019-02-27T12:39:33.717Z,17.10
2019-02-27T12:42:04.156Z,17.10
2019-02-27T12:44:34.604Z,17.10
2019-02-27T12:47:05.504Z,17.10
2019-02-27T12:49:35.133Z,17.20
2019-02-27T12:52:04.529Z,17.30
2019-02-27T12:54:33.898Z,17.30
2019-02-27T12:57:03.284Z,17.40
2019-02-27T12:59:33.056Z,17.50
2019-02-27T13:02:08.238Z,17.60
2019-02-27T13:04:34.089Z,17.60
2019-02-27T13:07:10.389Z,17.70
2019-02-27T13:09:39.096Z,17.70
2019-02-27T13:12:08.515Z,17.80
2019-02-27T13:14:37.912Z,17.90
2019-02-27T13:17:07.284Z,17.90
2019-02-27T13:19:38.481Z,18.00
2019-02-27T13:22:07.770Z,18.10
2019-02-27T13:24:37.179Z,18.20
2019-02-27T13:27:08.973Z,18.20
2019-02-27T13:29:37.736Z,18.30
2019-02-27T13:32:07.154Z,18.30
2019-02-27T13:34:36.530Z,18.40
2019-02-27T13:37:06.905Z,18.40
2019-02-27T13:39:37.459Z,18.50
2019-02-27T13:42:06.840Z,18.50
2019-02-27T13:44:38.898Z,18.60
2019-02-27T13:47:07.303Z,18.70
2019-02-27T13:49:36.659Z,18.70
2019-02-27T13:52:06.041Z,18.80
2019-02-27T13:54:38.119Z,18.80
2019-02-27T13:57:06.544Z,18.90
2019-02-27T13:59:35.978Z,18.90
2019-02-27T14:02:05.538Z,18.90
2019-02-27T14:04:34.940Z,19.00
2019-02-27T14:07:04.432Z,19.10
2019-02-27T14:09:33.823Z,19.10
2019-02-27T14:12:03.238Z,19.20
2019-02-27T14:14:32.630Z,19.20
2019-02-27T14:17:02.027Z,19.30
2019-02-27T14:19:31.370Z,19.40
2019-02-27T14:22:00.800Z,19.40
2019-02-27T14:24:30.144Z,19.40
2019-02-27T14:26:59.559Z,19.40
2019-02-27T14:29:29.882Z,19.50
2019-02-27T14:32:00.099Z,19.50
2019-02-27T14:34:29.543Z,19.50
2019-02-27T14:36:58.890Z,19.50
2019-02-27T14:39:29.652Z,19.50
2019-02-27T14:41:59.452Z,19.50
2019-02-27T14:44:31.199Z,19.50
2019-02-27T14:46:59.948Z,19.50
2019-02-27T14:49:29.413Z,19.50
2019-02-27T14:51:58.802Z,19.40
2019-02-27T14:54:29.110Z,19.40
2019-02-27T14:56:59.272Z,19.40
2019-02-27T14:59:30.349Z,19.40
2019-02-27T15:01:59.818Z,19.40
2019-02-27T15:04:32.306Z,19.50
2019-02-27T15:07:00.336Z,19.50
2019-02-27T15:09:29.712Z,19.50
2019-02-27T15:11:59.173Z,19.50
2019-02-27T15:14:31.042Z,19.50
2019-02-27T15:16:59.691Z,19.50
2019-02-27T15:19:29.989Z,19.50
2019-02-27T15:22:00.079Z,19.40
2019-02-27T15:24:31.961Z,19.40
2019-02-27T15:27:00.600Z,19.30
2019-02-27T15:29:29.964Z,19.30
2019-02-27T15:31:59.363Z,19.30
2019-02-27T15:34:28.805Z,19.20
2019-02-27T15:36:58.158Z,19.20
2019-02-27T15:39:28.041Z,19.10
2019-02-27T15:41:57.376Z,19.00
2019-02-27T15:44:26.736Z,18.90
2019-02-27T15:46:56.624Z,18.80
2019-02-27T15:49:26.772Z,18.80
2019-02-27T15:51:56.167Z,18.70
2019-02-27T15:54:25.586Z,18.70
2019-02-27T15:56:54.972Z,18.60
2019-02-27T15:59:24.396Z,18.50
2019-02-27T16:01:54.088Z,18.50
2019-02-27T16:04:23.542Z,18.40
2019-02-27T16:06:53.091Z,18.30
2019-02-27T16:09:22.760Z,18.20
2019-02-27T16:11:52.580Z,18.20
2019-02-27T16:14:22.152Z,18.10
2019-02-27T16:16:54.401Z,18.00
2019-02-27T16:19:22.884Z,17.90
2019-02-27T16:21:56.845Z,17.80
2019-02-27T16:24:23.438Z,17.70
2019-02-27T16:26:52.964Z,17.60
2019-02-27T16:29:22.800Z,17.60
2019-02-27T16:31:53.223Z,17.50
2019-02-27T16:34:22.708Z,17.50
2019-02-27T16:36:52.247Z,17.30
2019-02-27T16:39:21.914Z,17.30
2019-02-27T16:41:51.955Z,17.20
2019-02-27T16:44:22.669Z,17.10
2019-02-27T16:46:52.335Z,17.00
2019-02-27T16:49:21.989Z,16.90
2019-02-27T16:51:51.831Z,16.80
2019-02-27T16:54:24.067Z,16.80
2019-02-27T16:56:52.734Z,16.70
2019-02-27T16:59:22.808Z,16.60
2019-02-27T17:01:53.285Z,16.50
2019-02-27T17:04:24.326Z,16.40
2019-02-27T17:06:54.405Z,16.30
2019-02-27T17:09:24.368Z,16.20
2019-02-27T17:11:54.981Z,16.10
2019-02-27T17:14:29.597Z,16.00
2019-02-27T17:16:59.957Z,15.90
2019-02-27T17:19:30.001Z,15.80
2019-02-27T17:22:05.727Z,15.70
2019-02-27T17:24:35.422Z,15.60
2019-02-27T17:27:05.311Z,15.50
2019-02-27T17:29:35.442Z,15.40
2019-02-27T17:32:05.523Z,15.30
2019-02-27T17:34:35.547Z,15.20
2019-02-27T17:37:06.434Z,15.10
2019-02-27T17:39:42.768Z,15.10
2019-02-27T17:42:12.705Z,15.00
2019-02-27T17:44:42.592Z,14.80
2019-02-27T17:47:12.963Z,14.70
2019-02-27T17:49:43.223Z,14.60
2019-02-27T17:52:14.869Z,14.50
2019-02-27T17:54:44.414Z,14.30
2019-02-27T17:57:14.295Z,14.20
2019-02-27T17:59:43.930Z,14.10
2019-02-27T18:02:13.649Z,14.00
2019-02-27T18:04:45.306Z,13.90
2019-02-27T18:07:15.065Z,13.80
2019-02-27T18:09:44.493Z,13.80
2019-02-27T18:12:13.902Z,13.60
2019-02-27T18:14:46.695Z,13.60
2019-02-27T18:17:14.555Z,13.50
2019-02-27T18:19:44.086Z,13.40
2019-02-27T18:22:14.733Z,13.30
2019-02-27T18:24:44.382Z,13.20
2019-02-27T18:27:13.893Z,13.10
2019-02-27T18:29:44.488Z,13.00
2019-02-27T18:32:14.131Z,12.90
2019-02-27T18:34:43.745Z,12.80
2019-02-27T18:37:14.523Z,12.70
2019-02-27T18:39:44.150Z,12.70
2019-02-27T18:42:13.674Z,12.60
2019-02-27T18:44:43.327Z,12.50
2019-02-27T18:47:13.000Z,12.50
2019-02-27T18:49:42.530Z,12.40
2019-02-27T18:52:21.033Z,12.30
2019-02-27T18:54:43.252Z,12.20
2019-02-27T18:57:12.868Z,12.10
2019-02-27T18:59:42.338Z,12.00
2019-02-27T19:02:11.812Z,11.90
2019-02-27T19:04:41.365Z,11.80
2019-02-27T19:07:12.745Z,11.80
2019-02-27T19:09:42.195Z,11.60
2019-02-27T19:12:11.732Z,11.60
2019-02-27T19:14:41.471Z,11.50
2019-02-27T19:17:11.107Z,11.40
2019-02-27T19:19:40.693Z,11.40
2019-02-27T19:22:11.343Z,11.30
2019-02-27T19:24:40.988Z,11.30
2019-02-27T19:27:10.488Z,11.20
2019-02-27T19:29:40.060Z,11.20
2019-02-27T19:32:09.676Z,11.10
2019-02-27T19:34:41.536Z,11.00
2019-02-27T19:37:21.427Z,11.00
2019-02-27T19:40:07.765Z,10.90
2019-02-27T19:43:21.704Z,10.90
2019-02-27T19:45:47.971Z,10.80
2019-02-27T19:48:17.433Z,10.80
2019-02-27T19:50:46.921Z,10.70
2019-02-27T19:53:21.503Z,10.70
2019-02-27T19:56:01.738Z,10.70
2019-02-27T19:58:51.274Z,10.60
2019-02-27T20:01:49.541Z,10.60
2019-02-27T20:04:16.090Z,10.60
2019-02-27T20:06:45.702Z,10.50
2019-02-27T20:09:19.039Z,10.50
2019-02-27T20:11:46.775Z,10.50
2019-02-27T20:14:16.471Z,10.40
2019-02-27T20:16:46.076Z,10.40
2019-02-27T20:19:22.149Z,10.30
2019-02-27T20:21:46.896Z,10.30
2019-02-27T20:24:16.392Z,10.20
2019-02-27T20:26:45.907Z,10.10
2019-02-27T20:29:15.628Z,10.10
2019-02-27T20:31:45.390Z,10.00
2019-02-27T20:34:15.752Z,9.90
2019-02-27T20:36:45.267Z,9.90
2019-02-27T20:39:15.111Z,9.80
2019-02-27T20:41:44.947Z,9.70
2019-02-27T20:44:14.753Z,9.70
2019-02-27T20:46:46.330Z,9.60
2019-02-27T20:49:16.691Z,9.50
2019-02-27T20:51:46.201Z,9.40
2019-02-27T20:54:16.918Z,9.30
2019-02-27T20:56:55.157Z,9.20
2019-02-27T20:59:17.944Z,9.20
2019-02-27T21:01:47.997Z,9.10
2019-02-27T21:04:17.708Z,9.10
2019-02-27T21:06:48.460Z,9.10
2019-02-27T21:09:18.211Z,9.00
2019-02-27T21:11:47.812Z,9.00
2019-02-27T21:14:20.547Z,9.00
2019-02-27T21:16:50.064Z,9.00
2019-02-27T21:19:19.555Z,9.10
2019-02-27T21:21:53.598Z,9.10
2019-02-27T21:24:20.367Z,9.10
2019-02-27T21:26:49.903Z,9.20
2019-02-27T21:29:19.373Z,9.10
2019-02-27T21:31:48.895Z,9.20
2019-02-27T21:34:20.044Z,9.20
2019-02-27T21:36:50.172Z,9.20
2019-02-27T21:39:22.561Z,9.30
2019-02-27T21:41:50.990Z,9.30
2019-02-27T21:44:25.465Z,9.30
2019-02-27T21:46:51.773Z,9.30
2019-02-27T21:49:21.333Z,9.30
2019-02-27T21:51:50.915Z,9.30
2019-02-27T21:54:20.417Z,9.30
2019-02-27T21:56:51.805Z,9.40
2019-02-27T21:59:21.042Z,9.30
2019-02-27T22:01:53.321Z,9.30
2019-02-27T22:04:21.834Z,9.30
2019-02-27T22:06:51.322Z,9.40
2019-02-27T22:09:20.873Z,9.40
2019-02-27T22:11:50.418Z,9.40
2019-02-27T22:14:19.927Z,9.40
2019-02-27T22:16:49.447Z,9.40
2019-02-27T22:19:19.108Z,9.40
2019-02-27T22:21:49.509Z,9.40
2019-02-27T22:24:20.961Z,9.40
2019-02-27T22:26:50.246Z,9.30
2019-02-27T22:29:19.751Z,9.30
2019-02-27T22:31:49.226Z,9.30
2019-02-27T22:34:18.774Z,9.30
2019-02-27T22:36:48.202Z,9.30
2019-02-27T22:39:17.625Z,9.20
2019-02-27T22:41:47.024Z,9.20
2019-02-27T22:44:16.496Z,9.10
2019-02-27T22:46:47.814Z,9.10
2019-02-27T22:49:17.047Z,9.00
2019-02-27T22:51:48.354Z,8.90
2019-02-27T22:54:17.628Z,8.90
2019-02-27T22:56:50.186Z,8.80
2019-02-27T22:59:18.120Z,8.80
2019-02-27T23:01:53.256Z,8.70
2019-02-27T23:04:22.804Z,8.70
2019-02-27T23:06:52.207Z,8.60
2019-02-27T23:09:22.164Z,8.60
2019-02-27T23:11:51.664Z,8.50
2019-02-27T23:14:21.082Z,8.50
2019-02-27T23:16:50.480Z,8.40
2019-02-27T23:19:19.906Z,8.40
2019-02-27T23:21:49.360Z,8.30
2019-02-27T23:24:18.800Z,8.30
2019-02-27T23:26:48.285Z,8.20
2019-02-27T23:29:17.711Z,8.20
2019-02-27T23:31:47.166Z,8.10
2019-02-27T23:34:16.655Z,8.10
2019-02-27T23:36:46.131Z,8.10
2019-02-27T23:39:15.752Z,8.00
2019-02-27T23:41:45.207Z,8.00
2019-02-27T23:44:14.655Z,7.90
2019-02-27T23:46:49.577Z,7.90
2019-02-27T23:49:15.236Z,7.80
2019-02-27T23:51:47.687Z,7.80
2019-02-27T23:54:15.751Z,7.80
2019-02-27T23:56:45.215Z,7.80
2019-02-27T23:59:14.648Z,7.80
